Terminal Aerodrome Forecast
Issued by NWS

Home | Current Version | Previous Version | Text Only | Print | Product List | Glossary On
Versions: 1 2 3 4 5 6 7 8 9 10 11 12 13 14 15
000
FTUS46 KSEW 301309 AAC
TAFOLM
TAF AMD
KOLM 301309Z 3013/0112 VRB03KT 5SM MIFG SCT010 BKN200
      TEMPO 3013/3016 1/2SM FG BKN010 BKN200
     FM301800 01007KT P6SM FEW060 BKN200
     FM010200 VRB03KT P6SM SCT250=

USA.gov is the U.S. government's official web portal to all federal, state and local government web resources and services.